Pagina principale
METAR-TAF:

METAR-TAF

Aeroporti :

Kirkenes, Norvegia

latitudine: 69-44N, longitudine: 029-54E, altezza: 9 m

Osservazione

Il bollettino è stato emesso 17 minuti fa, alle 11:20 UTC
Vento 8 kt da ovest, variando fra sud/sud-ovest e ovest/nord-ovest
Temperature 11°C
Umidità 50%
Pressione 1018 hPa
Visibilità 10 km o più
Nubi sparse ad un'altezza di 3800 ft
Nuvoloso ad un'altezza di 5100 ft

METAR: ENKR 291120Z 26008KT 210V300 9999 SCT038 BKN051 11/01 Q1018 RMK WIND 731FT 25015KT

Ora: 13:37 (11:37 UTC)

Previsione

Il bollettino è stato emesso 3 ore e 37 minuti fa, alle 08:00 UTC
Previsione valida dal 29 alle 09 UTC al 29 alle 18 UTC
Vento 8 kt da ovest/sud-ovest
Visibilità 10 km o più
Poco nuvoloso ad un'altezza di 3000 ft
Nuvoloso ad un'altezza di 4000 ft

TAF: ENKR 290800Z 2909/2918 25008KT 9999 FEW030 BKN040

Osservazioni e previsioni meteorologiche di più di 4000 aeroporti (messaggi METAR e TAF).

Le stazioni disponibili sono rappresentate dai dischi gialli e rossi sulla carta.

Puntare il mouse per vedere il nome della stazione.

Clicca sopra per visualizzare le osservazioni e previsioni meteorologiche.

Per cambiare la mappa : fare clic sui pulsanti verdi con una croce nera per ingrandire, il pulsante verde con un trattino per diminuire, o sulla freccia verde per le mappe adiacenti.


METAR-TAF: